Time;durP1;ratioP1;P1;durP2;ratioP2;P2;SDS_P1;SDS_P2;PMS_P1;PMS_P2;Temp;Humidity;BMP_temperature;BMP_pressure;BME280_temperature;BME280_humidity;BME280_pressure;Samples;Min_cycle;Max_cycle;Signal;HPM_P1;HPM_P2
2022/12/11 00:00:27;;;;;;;;;;;19.10;39.50;;;;;;5074216;28;19924;-66
2022/12/11 00:02:55;;;;;;;;;;;19.10;39.50;;;;;;5067575;28;20053;-65
2022/12/11 00:05:22;;;;;;;;;;;19.10;39.50;;;;;;5067264;28;20046;-67
2022/12/11 00:07:50;;;;;;;;;;;19.00;39.30;;;;;;5067796;28;20017;-68
2022/12/11 00:10:18;;;;;;;;;;;19.10;39.40;;;;;;5061012;28;19921;-65
2022/12/11 00:12:44;;;;;;;;;;;19.10;39.40;;;;;;5069289;28;19982;-65
2022/12/11 00:15:11;;;;;;;;;;;19.10;39.40;;;;;;5070333;28;19951;-66
2022/12/11 00:17:38;;;;;;;;;;;19.10;39.40;;;;;;5074122;28;19920;-67
2022/12/11 00:20:06;;;;;;;;;;;19.10;39.40;;;;;;5071800;28;20410;-65
2022/12/11 00:22:33;;;;;;;;;;;19.00;39.30;;;;;;5070725;28;20249;-66
2022/12/11 00:25:00;;;;;;;;;;;19.00;39.30;;;;;;5070719;28;19920;-65
2022/12/11 00:27:28;;;;;;;;;;;19.00;39.30;;;;;;5061937;28;19974;-64
2022/12/11 00:29:55;;;;;;;;;;;19.00;39.30;;;;;;5051053;28;19924;-65
2022/12/11 00:32:22;;;;;;;;;;;19.00;39.20;;;;;;5058969;28;19974;-65
2022/12/11 00:34:48;;;;;;;;;;;19.00;39.30;;;;;;5070445;28;19943;-65
2022/12/11 00:37:15;;;;;;;;;;;19.00;39.20;;;;;;5060040;28;19929;-65
2022/12/11 00:39:42;;;;;;;;;;;19.00;39.20;;;;;;5053260;28;19921;-63
2022/12/11 00:42:09;;;;;;;;;;;19.00;39.20;;;;;;5056046;28;19974;-65
2022/12/11 00:44:37;;;;;;;;;;;19.00;39.20;;;;;;5057340;28;19924;-65
2022/12/11 00:47:03;;;;;;;;;;;19.00;39.10;;;;;;5083882;28;19979;-67
2022/12/11 00:49:30;;;;;;;;;;;19.00;39.10;;;;;;5064082;28;19924;-65
2022/12/11 00:51:57;;;;;;;;;;;19.00;39.10;;;;;;5103578;28;20033;-64
2022/12/11 00:54:24;;;;;;;;;;;19.00;39.70;;;;;;5067980;28;20266;-66
2022/12/11 00:56:50;;;;;;;;;;;19.00;39.00;;;;;;5086355;28;19940;-66
2022/12/11 00:59:17;;;;;;;;;;;19.00;39.00;;;;;;5070348;28;19927;-66
2022/12/11 01:01:45;;;;;;;;;;;19.00;39.00;;;;;;5068988;28;19978;-64
2022/12/11 01:04:12;;;;;;;;;;;19.00;39.00;;;;;;5069833;28;19928;-65
2022/12/11 01:06:39;;;;;;;;;;;19.00;39.00;;;;;;5069140;28;19924;-64
2022/12/11 01:11:50;;;;;;;;;;;19.00;39.00;;;;;;5085434;28;19952;-65
2022/12/11 01:14:17;;;;;;;;;;;18.90;38.90;;;;;;5069498;28;19928;-66
2022/12/11 01:16:44;;;;;;;;;;;18.90;38.80;;;;;;5068964;28;19927;-66
2022/12/11 01:19:12;;;;;;;;;;;18.90;38.80;;;;;;5050405;28;19921;-65
2022/12/11 01:21:39;;;;;;;;;;;18.90;38.80;;;;;;5051201;28;19921;-65
2022/12/11 01:24:06;;;;;;;;;;;18.90;38.80;;;;;;5049655;28;19974;-65
2022/12/11 01:26:33;;;;;;;;;;;18.90;38.80;;;;;;5057559;28;20042;-65
2022/12/11 01:29:00;;;;;;;;;;;18.90;38.80;;;;;;5060127;28;19928;-66
2022/12/11 01:31:27;;;;;;;;;;;18.90;38.80;;;;;;5051147;28;19944;-66
2022/12/11 01:33:53;;;;;;;;;;;18.90;38.70;;;;;;5081710;28;20282;-65
2022/12/11 01:36:22;;;;;;;;;;;18.90;38.70;;;;;;5051845;28;19960;-66
2022/12/11 01:38:49;;;;;;;;;;;18.90;38.70;;;;;;5088067;28;20328;-65
2022/12/11 01:41:15;;;;;;;;;;;18.90;39.30;;;;;;5103181;28;19924;-67
2022/12/11 01:43:58;;;;;;;;;;;18.90;38.80;;;;;;5069113;28;19924;-65
2022/12/11 01:46:25;;;;;;;;;;;18.90;38.70;;;;;;5069851;28;19964;-65
2022/12/11 01:48:52;;;;;;;;;;;18.90;38.80;;;;;;5089122;28;19974;-66
2022/12/11 01:51:18;;;;;;;;;;;18.90;38.80;;;;;;5068284;28;19974;-66
2022/12/11 01:53:49;;;;;;;;;;;18.90;38.80;;;;;;5086693;28;19921;-68
2022/12/11 01:56:15;;;;;;;;;;;18.90;38.80;;;;;;5068885;28;20266;-67
2022/12/11 01:58:43;;;;;;;;;;;18.90;38.80;;;;;;5063899;28;19969;-64
2022/12/11 02:01:10;;;;;;;;;;;18.90;38.70;;;;;;5083495;28;19928;-65
2022/12/11 02:03:37;;;;;;;;;;;18.90;38.70;;;;;;5062565;28;19932;-65
2022/12/11 02:06:04;;;;;;;;;;;18.90;38.70;;;;;;5066362;28;20375;-65
2022/12/11 02:08:31;;;;;;;;;;;18.90;38.60;;;;;;5054032;28;19928;-65
2022/12/11 02:11:04;;;;;;;;;;;18.90;38.60;;;;;;5068577;28;20007;-65
2022/12/11 02:13:33;;;;;;;;;;;18.90;38.60;;;;;;5068232;28;19924;-65
2022/12/11 02:16:00;;;;;;;;;;;18.90;38.60;;;;;;5068124;28;19921;-66
2022/12/11 02:18:29;;;;;;;;;;;18.90;38.60;;;;;;5066609;28;19954;-65
2022/12/11 02:20:58;;;;;;;;;;;18.90;38.60;;;;;;5082011;28;19974;-65
2022/12/11 02:23:39;;;;;;;;;;;18.80;38.50;;;;;;5081168;28;19927;-67
2022/12/11 02:26:11;;;;;;;;;;;18.80;38.50;;;;;;5082989;28;19983;-67
2022/12/11 02:28:39;;;;;;;;;;;18.90;38.60;;;;;;5055376;28;20365;-65
2022/12/11 02:31:07;;;;;;;;;;;18.90;38.50;;;;;;5065189;28;19960;-65
2022/12/11 02:33:34;;;;;;;;;;;18.80;38.50;;;;;;5073136;28;19974;-66
2022/12/11 02:36:01;;;;;;;;;;;18.80;38.40;;;;;;5082247;28;19921;-65
2022/12/11 02:38:28;;;;;;;;;;;18.80;38.40;;;;;;5080508;28;19933;-65
2022/12/11 02:40:55;;;;;;;;;;;18.80;38.40;;;;;;5101036;28;19920;-64
2022/12/11 02:43:22;;;;;;;;;;;18.80;38.30;;;;;;5067719;28;19921;-65
2022/12/11 02:45:50;;;;;;;;;;;18.80;38.40;;;;;;5068365;28;19921;-64
2022/12/11 02:48:17;;;;;;;;;;;18.80;38.40;;;;;;5064880;28;20378;-65
2022/12/11 02:50:44;;;;;;;;;;;18.80;38.30;;;;;;5047979;28;20020;-65
2022/12/11 02:53:11;;;;;;;;;;;18.80;38.30;;;;;;5055814;28;19920;-66
2022/12/11 02:55:37;;;;;;;;;;;18.80;38.30;;;;;;5069345;28;19925;-66
2022/12/11 02:58:05;;;;;;;;;;;18.80;38.30;;;;;;5066710;28;19921;-65
2022/12/11 03:00:32;;;;;;;;;;;18.80;38.30;;;;;;5068012;28;19996;-65
2022/12/11 03:03:00;;;;;;;;;;;18.80;38.30;;;;;;5067569;28;20034;-65
2022/12/11 03:05:27;;;;;;;;;;;18.80;38.30;;;;;;5068126;28;19964;-65
2022/12/11 03:07:54;;;;;;;;;;;18.80;38.30;;;;;;5067641;28;20015;-65
2022/12/11 03:10:20;;;;;;;;;;;18.80;38.30;;;;;;5063155;28;19921;-65
2022/12/11 03:12:49;;;;;;;;;;;18.80;38.30;;;;;;5067489;28;19929;-65
2022/12/11 03:15:16;;;;;;;;;;;18.80;38.30;;;;;;5061096;28;19971;-64
2022/12/11 03:17:45;;;;;;;;;;;18.80;38.30;;;;;;5050510;28;20533;-65
2022/12/11 03:20:16;;;;;;;;;;;18.80;38.30;;;;;;5066652;28;19925;-65
2022/12/11 03:22:43;;;;;;;;;;;18.80;38.30;;;;;;5067519;28;19920;-65
2022/12/11 03:25:13;;;;;;;;;;;18.80;38.20;;;;;;5059117;28;20386;-65
2022/12/11 03:27:41;;;;;;;;;;;18.80;38.20;;;;;;5049521;28;20120;-64
2022/12/11 03:30:08;;;;;;;;;;;18.80;38.20;;;;;;5100097;28;19928;-64
2022/12/11 03:32:36;;;;;;;;;;;18.80;38.20;;;;;;5067698;28;19932;-65
2022/12/11 03:35:04;;;;;;;;;;;18.80;38.20;;;;;;5067654;28;19921;-64
2022/12/11 03:37:32;;;;;;;;;;;18.80;38.20;;;;;;5067155;28;19981;-65
2022/12/11 03:40:01;;;;;;;;;;;18.80;38.20;;;;;;5066824;28;19920;-65
2022/12/11 03:42:28;;;;;;;;;;;18.80;38.20;;;;;;5061623;28;20552;-65
2022/12/11 03:44:54;;;;;;;;;;;18.80;38.20;;;;;;5066172;28;19974;-65
2022/12/11 03:47:22;;;;;;;;;;;18.80;38.20;;;;;;5057432;28;19927;-65
2022/12/11 03:49:49;;;;;;;;;;;18.80;38.20;;;;;;5085541;28;20398;-65
2022/12/11 03:52:16;;;;;;;;;;;18.80;38.20;;;;;;5083963;28;19924;-64
2022/12/11 03:54:45;;;;;;;;;;;18.80;38.10;;;;;;5072786;28;19935;-66
2022/12/11 03:57:12;;;;;;;;;;;18.80;38.10;;;;;;5070743;28;19962;-66
2022/12/11 03:59:39;;;;;;;;;;;18.80;38.10;;;;;;5065363;28;19960;-65
2022/12/11 04:02:10;;;;;;;;;;;18.80;38.10;;;;;;5069215;28;20363;-65
2022/12/11 04:04:36;;;;;;;;;;;18.80;38.10;;;;;;5100440;28;19924;-64
2022/12/11 04:07:03;;;;;;;;;;;18.80;38.10;;;;;;5050880;28;19928;-65
2022/12/11 04:09:30;;;;;;;;;;;18.80;38.10;;;;;;5054541;28;20313;-64
2022/12/11 04:11:58;;;;;;;;;;;18.80;38.10;;;;;;5071209;28;20185;-66
2022/12/11 04:17:09;;;;;;;;;;;18.80;38.10;;;;;;5099321;28;20357;-64
2022/12/11 04:25:09;;;;;;;;;;;18.80;38.00;;;;;;5070571;28;19925;-66
2022/12/11 04:27:49;;;;;;;;;;;18.80;38.00;;;;;;5070222;28;19921;-65
2022/12/11 04:30:17;;;;;;;;;;;18.80;38.00;;;;;;5071283;28;19924;-65
2022/12/11 04:32:43;;;;;;;;;;;18.80;38.00;;;;;;5069529;28;19920;-66
2022/12/11 04:35:11;;;;;;;;;;;18.80;38.00;;;;;;5085368;28;19925;-65
2022/12/11 04:37:37;;;;;;;;;;;18.70;37.90;;;;;;5054547;28;19924;-66
2022/12/11 04:40:05;;;;;;;;;;;18.70;37.90;;;;;;5084037;28;19989;-65
2022/12/11 04:42:31;;;;;;;;;;;18.70;38.50;;;;;;5076141;28;19924;-65
2022/12/11 04:44:59;;;;;;;;;;;18.70;37.90;;;;;;5075477;28;19943;-64
2022/12/11 04:47:26;;;;;;;;;;;18.70;37.80;;;;;;5070100;28;19921;-65
2022/12/11 04:49:53;;;;;;;;;;;18.70;37.80;;;;;;5053425;28;20355;-65
2022/12/11 04:52:20;;;;;;;;;;;18.70;37.80;;;;;;5064622;28;19924;-65
2022/12/11 04:54:47;;;;;;;;;;;18.70;37.80;;;;;;5102097;28;20355;-65
2022/12/11 04:57:13;;;;;;;;;;;18.80;37.80;;;;;;5069984;28;19947;-65
2022/12/11 04:59:40;;;;;;;;;;;18.70;38.40;;;;;;5064823;28;19920;-64
2022/12/11 05:02:08;;;;;;;;;;;18.70;37.80;;;;;;5103299;28;19932;-65
2022/12/11 05:04:35;;;;;;;;;;;18.70;37.80;;;;;;5103537;28;19920;-65
2022/12/11 05:07:02;;;;;;;;;;;18.80;37.80;;;;;;5103169;28;19920;-65
2022/12/11 05:09:29;;;;;;;;;;;18.70;37.70;;;;;;5101571;28;19988;-65
2022/12/11 05:11:55;;;;;;;;;;;18.70;37.80;;;;;;5069486;28;19920;-65
2022/12/11 05:14:22;;;;;;;;;;;18.70;37.70;;;;;;5069806;28;20143;-65
2022/12/11 05:16:49;;;;;;;;;;;18.70;37.70;;;;;;5070561;28;20401;-65
2022/12/11 05:19:17;;;;;;;;;;;18.70;37.70;;;;;;5102503;28;19924;-66
2022/12/11 05:21:44;;;;;;;;;;;18.70;37.70;;;;;;5070382;28;19973;-65
2022/12/11 05:24:10;;;;;;;;;;;18.70;37.70;;;;;;5059143;28;19935;-65
2022/12/11 05:26:37;;;;;;;;;;;18.70;37.70;;;;;;5070369;28;19925;-66
2022/12/11 05:29:04;;;;;;;;;;;18.70;37.60;;;;;;5099575;28;19928;-65
2022/12/11 05:31:31;;;;;;;;;;;18.70;37.60;;;;;;5069797;28;19920;-64
2022/12/11 05:33:57;;;;;;;;;;;18.70;37.60;;;;;;5054966;28;19942;-66
2022/12/11 05:36:26;;;;;;;;;;;18.70;37.60;;;;;;5060071;28;19921;-65
2022/12/11 05:38:53;;;;;;;;;;;18.70;37.60;;;;;;5056725;28;19956;-65
2022/12/11 05:41:21;;;;;;;;;;;18.70;37.60;;;;;;5050811;28;19921;-64
2022/12/11 05:43:47;;;;;;;;;;;18.70;37.60;;;;;;5052418;28;19974;-68
2022/12/11 05:46:15;;;;;;;;;;;18.70;37.50;;;;;;5051849;28;19936;-66
2022/12/11 05:48:42;;;;;;;;;;;18.70;37.50;;;;;;5052227;28;20031;-65
2022/12/11 05:51:09;;;;;;;;;;;18.70;37.50;;;;;;5102468;28;19982;-65
2022/12/11 05:53:37;;;;;;;;;;;18.70;37.50;;;;;;5102041;28;19924;-64
2022/12/11 05:56:04;;;;;;;;;;;18.70;37.50;;;;;;5075538;28;20330;-66
2022/12/11 05:58:31;;;;;;;;;;;18.70;37.50;;;;;;5088305;28;19978;-66
2022/12/11 06:00:58;;;;;;;;;;;18.70;37.50;;;;;;5083167;28;19964;-67
2022/12/11 06:03:24;;;;;;;;;;;18.70;37.50;;;;;;5066743;28;20165;-63
2022/12/11 06:05:51;;;;;;;;;;;18.70;38.00;;;;;;5082126;28;19928;-64
2022/12/11 06:08:18;;;;;;;;;;;18.70;37.40;;;;;;5088523;28;19990;-63
2022/12/11 06:10:46;;;;;;;;;;;18.70;37.40;;;;;;5068490;28;19921;-66
2022/12/11 06:13:13;;;;;;;;;;;18.70;37.40;;;;;;5053758;28;19925;-65
2022/12/11 06:15:40;;;;;;;;;;;18.70;37.40;;;;;;5067052;28;19997;-65
2022/12/11 06:18:07;;;;;;;;;;;18.70;37.40;;;;;;5066897;28;19960;-66
2022/12/11 06:20:33;;;;;;;;;;;18.70;37.40;;;;;;5068316;28;19920;-65
2022/12/11 06:23:00;;;;;;;;;;;18.70;37.40;;;;;;5068250;28;19920;-64
2022/12/11 06:25:27;;;;;;;;;;;18.70;37.40;;;;;;5068282;28;19950;-65
2022/12/11 06:27:55;;;;;;;;;;;18.70;37.40;;;;;;5064360;28;19920;-64
2022/12/11 06:30:22;;;;;;;;;;;18.70;37.40;;;;;;5068209;28;20289;-65
2022/12/11 06:32:49;;;;;;;;;;;18.70;37.40;;;;;;5068281;28;19925;-66
2022/12/11 06:35:15;;;;;;;;;;;18.70;37.40;;;;;;5068915;28;19921;-65
2022/12/11 06:37:42;;;;;;;;;;;18.70;37.40;;;;;;5066310;28;19924;-66
2022/12/11 06:40:10;;;;;;;;;;;18.70;37.30;;;;;;5101839;28;20367;-66
2022/12/11 06:42:37;;;;;;;;;;;18.70;37.30;;;;;;5064481;28;19933;-65
2022/12/11 06:45:07;;;;;;;;;;;18.70;37.40;;;;;;5059982;28;19920;-65
2022/12/11 06:47:34;;;;;;;;;;;18.70;37.30;;;;;;5100922;28;19924;-65
2022/12/11 06:50:01;;;;;;;;;;;18.70;37.30;;;;;;5100745;28;19924;-66
2022/12/11 06:52:28;;;;;;;;;;;18.70;37.30;;;;;;5068084;28;19924;-64
2022/12/11 06:54:55;;;;;;;;;;;18.70;37.30;;;;;;5068991;28;19925;-65
2022/12/11 06:57:21;;;;;;;;;;;18.70;37.30;;;;;;5049165;28;19929;-64
2022/12/11 06:59:48;;;;;;;;;;;18.70;37.20;;;;;;5051542;28;19940;-65
2022/12/11 07:02:17;;;;;;;;;;;18.70;37.20;;;;;;5048103;28;20410;-64
2022/12/11 07:04:44;;;;;;;;;;;18.60;37.10;;;;;;5053913;28;19927;-65
2022/12/11 07:07:10;;;;;;;;;;;18.60;37.70;;;;;;5067564;28;19926;-65
2022/12/11 07:09:37;;;;;;;;;;;18.70;37.80;;;;;;5054077;28;19925;-65
2022/12/11 07:12:05;;;;;;;;;;;18.60;37.10;;;;;;5068085;28;19925;-64
2022/12/11 07:14:32;;;;;;;;;;;18.70;37.20;;;;;;5068036;28;19921;-68
2022/12/11 07:16:58;;;;;;;;;;;18.70;37.10;;;;;;5089731;28;19951;-65
2022/12/11 07:19:27;;;;;;;;;;;18.70;37.20;;;;;;5050952;28;19925;-66
2022/12/11 07:21:54;;;;;;;;;;;18.60;37.10;;;;;;5105743;28;19921;-64
2022/12/11 07:24:20;;;;;;;;;;;18.60;37.00;;;;;;5091439;28;19921;-65
2022/12/11 07:26:47;;;;;;;;;;;18.60;37.00;;;;;;5073085;28;20388;-65
2022/12/11 07:29:14;;;;;;;;;;;18.60;37.00;;;;;;5103557;28;20386;-66
2022/12/11 07:31:41;;;;;;;;;;;18.60;37.00;;;;;;5071977;28;20274;-65
2022/12/11 07:34:08;;;;;;;;;;;18.70;37.10;;;;;;5053434;28;19928;-64
2022/12/11 07:36:36;;;;;;;;;;;18.60;37.00;;;;;;5051566;28;19920;-66
2022/12/11 07:39:03;;;;;;;;;;;18.60;36.90;;;;;;5055944;28;19920;-65
2022/12/11 07:41:30;;;;;;;;;;;18.60;36.90;;;;;;5070709;28;19921;-65
2022/12/11 07:44:00;;;;;;;;;;;18.60;36.90;;;;;;5071140;28;19921;-66
2022/12/11 07:46:27;;;;;;;;;;;18.70;37.00;;;;;;5052553;28;19928;-65
2022/12/11 07:48:54;;;;;;;;;;;18.60;36.90;;;;;;5059928;28;19924;-65
2022/12/11 07:51:23;;;;;;;;;;;18.60;36.90;;;;;;5069291;28;19924;-65
2022/12/11 07:53:52;;;;;;;;;;;18.60;36.90;;;;;;5058571;28;20007;-65
2022/12/11 07:56:19;;;;;;;;;;;18.60;36.80;;;;;;5067736;28;20014;-65
2022/12/11 07:58:45;;;;;;;;;;;18.60;36.80;;;;;;5063918;28;19921;-65
2022/12/11 08:01:13;;;;;;;;;;;18.60;36.80;;;;;;5066781;28;19971;-64
2022/12/11 08:03:39;;;;;;;;;;;18.60;36.80;;;;;;5071140;28;19955;-64
2022/12/11 08:06:06;;;;;;;;;;;18.60;36.80;;;;;;5104771;28;19928;-66
2022/12/11 08:08:33;;;;;;;;;;;18.60;36.80;;;;;;5061881;28;20004;-65
2022/12/11 08:11:02;;;;;;;;;;;18.60;36.80;;;;;;5070882;28;20417;-65
2022/12/11 08:13:28;;;;;;;;;;;18.60;36.70;;;;;;5064425;28;19921;-66
2022/12/11 08:15:55;;;;;;;;;;;18.60;36.80;;;;;;5084676;28;20010;-65
2022/12/11 08:18:22;;;;;;;;;;;18.60;36.80;;;;;;5051877;28;19975;-64
2022/12/11 08:20:49;;;;;;;;;;;18.60;36.70;;;;;;5063957;28;19947;-64
2022/12/11 08:23:15;;;;;;;;;;;18.60;36.70;;;;;;5069874;28;20019;-64
2022/12/11 08:25:42;;;;;;;;;;;18.60;36.70;;;;;;5065531;28;19928;-66
2022/12/11 08:28:10;;;;;;;;;;;18.60;36.70;;;;;;5054711;28;19935;-65
2022/12/11 08:30:38;;;;;;;;;;;18.60;37.40;;;;;;5059739;28;19932;-65
2022/12/11 08:33:05;;;;;;;;;;;18.60;36.80;;;;;;5070044;28;19920;-65
2022/12/11 08:35:32;;;;;;;;;;;18.60;36.80;;;;;;5070483;28;19947;-65
2022/12/11 08:37:59;;;;;;;;;;;18.60;36.80;;;;;;5068528;28;19920;-65
2022/12/11 08:40:25;;;;;;;;;;;18.60;36.80;;;;;;5065617;28;19946;-64
2022/12/11 08:42:52;;;;;;;;;;;18.60;36.80;;;;;;5071748;28;19967;-65
2022/12/11 08:45:20;;;;;;;;;;;18.60;36.70;;;;;;5071894;28;19920;-65
2022/12/11 08:47:47;;;;;;;;;;;18.60;36.80;;;;;;5069892;28;19927;-65
2022/12/11 08:50:14;;;;;;;;;;;18.60;36.80;;;;;;5061605;28;19924;-66
2022/12/11 08:52:40;;;;;;;;;;;18.60;36.80;;;;;;5070969;28;19985;-65
2022/12/11 08:55:11;;;;;;;;;;;18.60;36.70;;;;;;5055608;28;19924;-64
2022/12/11 08:57:38;;;;;;;;;;;18.60;36.70;;;;;;5064049;28;19947;-64
2022/12/11 09:00:12;;;;;;;;;;;18.60;37.40;;;;;;5094935;28;20023;-66
2022/12/11 09:02:41;;;;;;;;;;;18.60;36.80;;;;;;5065954;28;19931;-65
2022/12/11 09:05:08;;;;;;;;;;;18.60;36.80;;;;;;5068788;28;19920;-64
2022/12/11 09:07:35;;;;;;;;;;;18.60;36.80;;;;;;5069536;28;19924;-65
2022/12/11 09:10:02;;;;;;;;;;;18.60;36.80;;;;;;5067457;28;19925;-66
2022/12/11 09:12:28;;;;;;;;;;;18.60;36.80;;;;;;5068836;28;19968;-64
2022/12/11 09:14:55;;;;;;;;;;;18.60;36.80;;;;;;5071740;28;19921;-66
2022/12/11 09:17:22;;;;;;;;;;;18.60;36.80;;;;;;5065439;28;19962;-65
2022/12/11 09:19:50;;;;;;;;;;;18.60;36.90;;;;;;5063607;28;19933;-65
2022/12/11 09:22:17;;;;;;;;;;;18.60;36.90;;;;;;5076772;28;20402;-64
2022/12/11 09:24:45;;;;;;;;;;;18.60;36.90;;;;;;5083610;28;19931;-67
2022/12/11 09:27:11;;;;;;;;;;;18.60;36.90;;;;;;5072413;28;19920;-64
2022/12/11 09:29:38;;;;;;;;;;;18.60;37.00;;;;;;5069861;28;19925;-65
2022/12/11 09:32:05;;;;;;;;;;;18.60;37.00;;;;;;5070535;28;20362;-65
2022/12/11 09:34:32;;;;;;;;;;;18.60;37.10;;;;;;5071264;28;20035;-65
2022/12/11 09:37:00;;;;;;;;;;;18.60;37.10;;;;;;5075834;28;19928;-65
2022/12/11 09:39:27;;;;;;;;;;;18.60;37.10;;;;;;5063052;28;19957;-64
2022/12/11 09:41:55;;;;;;;;;;;18.70;37.20;;;;;;5086826;28;19939;-66
2022/12/11 09:44:31;;;;;;;;;;;18.60;37.20;;;;;;5073594;28;19924;-66
2022/12/11 09:46:58;;;;;;;;;;;18.60;37.20;;;;;;5069419;28;19947;-65
2022/12/11 09:49:27;;;;;;;;;;;18.70;37.30;;;;;;5066527;28;19985;-65
2022/12/11 09:51:58;;;;;;;;;;;18.60;37.20;;;;;;5070985;28;19932;-65
2022/12/11 09:54:27;;;;;;;;;;;18.70;37.40;;;;;;5066264;28;19924;-64
2022/12/11 09:56:56;;;;;;;;;;;18.70;37.40;;;;;;5073094;28;20026;-64
2022/12/11 09:59:23;;;;;;;;;;;18.70;37.40;;;;;;5071508;28;19985;-65
2022/12/11 10:01:51;;;;;;;;;;;18.70;37.40;;;;;;5078604;28;20293;-67
2022/12/11 10:04:20;;;;;;;;;;;18.70;37.50;;;;;;5080457;28;19920;-65
2022/12/11 10:06:48;;;;;;;;;;;18.70;37.50;;;;;;5080857;28;19927;-64
2022/12/11 10:09:17;;;;;;;;;;;18.70;37.50;;;;;;5070296;28;19974;-66
2022/12/11 10:11:49;;;;;;;;;;;18.70;37.60;;;;;;5068608;28;19925;-64
2022/12/11 10:14:18;;;;;;;;;;;18.70;37.60;;;;;;5064651;28;19928;-64
2022/12/11 10:16:45;;;;;;;;;;;18.70;37.60;;;;;;5059914;28;19932;-65
2022/12/11 10:19:13;;;;;;;;;;;18.70;37.60;;;;;;5092196;27;19928;-66
2022/12/11 10:21:40;;;;;;;;;;;18.70;37.60;;;;;;5063129;28;20358;-65
2022/12/11 10:24:10;;;;;;;;;;;18.70;37.70;;;;;;5054263;28;19986;-67
2022/12/11 10:26:38;;;;;;;;;;;18.70;37.70;;;;;;5098068;27;20367;-65
2022/12/11 10:29:09;;;;;;;;;;;18.70;37.70;;;;;;5065417;28;19978;-67
2022/12/11 10:31:38;;;;;;;;;;;18.70;37.80;;;;;;5062108;28;19974;-65
2022/12/11 10:34:06;;;;;;;;;;;18.70;37.80;;;;;;5071525;28;19920;-65
2022/12/11 10:36:34;;;;;;;;;;;18.80;37.90;;;;;;5057554;28;20386;-64
2022/12/11 10:39:01;;;;;;;;;;;18.80;37.90;;;;;;5060118;28;19964;-65
2022/12/11 10:41:33;;;;;;;;;;;18.80;37.90;;;;;;5088396;28;19927;-69
2022/12/11 10:44:00;;;;;;;;;;;18.80;38.00;;;;;;5057033;28;19974;-67
2022/12/11 10:46:31;;;;;;;;;;;18.80;38.10;;;;;;5062713;28;20335;-67
2022/12/11 10:48:58;;;;;;;;;;;18.80;38.10;;;;;;5068799;28;19920;-69
2022/12/11 10:51:26;;;;;;;;;;;18.80;38.20;;;;;;5059551;28;19933;-67
2022/12/11 10:53:53;;;;;;;;;;;18.80;38.20;;;;;;5062779;28;20306;-66
2022/12/11 10:56:24;;;;;;;;;;;18.80;38.20;;;;;;5058938;28;19925;-66
2022/12/11 10:58:51;;;;;;;;;;;18.80;38.10;;;;;;5094033;28;19978;-66
2022/12/11 11:01:19;;;;;;;;;;;18.90;38.20;;;;;;5061371;28;19970;-66
2022/12/11 11:03:53;;;;;;;;;;;18.90;38.20;;;;;;5063814;28;19937;-68
2022/12/11 11:06:22;;;;;;;;;;;18.90;38.20;;;;;;5061055;28;20452;-65
2022/12/11 11:08:52;;;;;;;;;;;18.90;38.20;;;;;;5065442;28;20021;-67
2022/12/11 11:11:20;;;;;;;;;;;18.90;38.20;;;;;;5059241;28;19975;-66
2022/12/11 11:13:47;;;;;;;;;;;18.90;38.30;;;;;;5063172;28;19921;-67
2022/12/11 11:16:15;;;;;;;;;;;18.90;38.20;;;;;;5086417;28;19936;-65
2022/12/11 11:18:42;;;;;;;;;;;18.90;38.20;;;;;;5094910;28;19943;-65
2022/12/11 11:21:17;;;;;;;;;;;18.90;38.20;;;;;;5068706;28;19924;-66
2022/12/11 11:23:43;;;;;;;;;;;18.90;38.20;;;;;;5060971;28;19925;-65
2022/12/11 11:26:11;;;;;;;;;;;18.90;38.30;;;;;;5081894;28;19924;-67
2022/12/11 11:28:38;;;;;;;;;;;18.90;38.20;;;;;;5061428;28;19939;-65
2022/12/11 11:31:05;;;;;;;;;;;18.90;38.20;;;;;;5096801;28;19932;-64
2022/12/11 11:33:32;;;;;;;;;;;18.90;38.20;;;;;;5061135;28;19935;-66
2022/12/11 11:35:59;;;;;;;;;;;18.90;38.30;;;;;;5062113;28;20120;-65
2022/12/11 11:38:28;;;;;;;;;;;18.90;38.30;;;;;;5055477;28;19966;-66
2022/12/11 11:40:55;;;;;;;;;;;18.90;38.20;;;;;;5049888;28;19963;-65
2022/12/11 11:43:28;;;;;;;;;;;18.90;38.20;;;;;;5070414;28;19927;-65
2022/12/11 11:45:55;;;;;;;;;;;18.90;38.20;;;;;;5053481;28;19925;-64
2022/12/11 11:48:25;;;;;;;;;;;18.90;38.30;;;;;;5084082;28;19951;-66
2022/12/11 11:50:52;;;;;;;;;;;19.00;38.40;;;;;;5051759;28;19924;-64
2022/12/11 11:53:20;;;;;;;;;;;19.00;38.50;;;;;;5102221;28;19932;-64
2022/12/11 11:55:49;;;;;;;;;;;19.00;38.50;;;;;;5057052;28;20050;-64
2022/12/11 11:58:16;;;;;;;;;;;19.00;38.60;;;;;;5067438;28;20338;-64
2022/12/11 12:00:43;;;;;;;;;;;19.00;38.60;;;;;;5058017;28;20022;-66
2022/12/11 12:03:10;;;;;;;;;;;19.00;38.70;;;;;;5067505;28;19921;-65
2022/12/11 12:05:39;;;;;;;;;;;19.10;38.70;;;;;;5082294;28;19924;-63
2022/12/11 12:08:08;;;;;;;;;;;19.10;38.80;;;;;;5077297;28;19963;-64
2022/12/11 12:10:36;;;;;;;;;;;19.10;38.80;;;;;;5061469;28;19934;-63
2022/12/11 12:13:06;;;;;;;;;;;19.10;38.80;;;;;;5091795;27;19925;-64
2022/12/11 12:15:35;;;;;;;;;;;19.10;38.80;;;;;;5054352;28;19924;-64
2022/12/11 12:18:04;;;;;;;;;;;19.10;38.80;;;;;;5064948;28;19921;-63
2022/12/11 12:20:33;;;;;;;;;;;19.10;38.80;;;;;;5055798;28;19955;-63
2022/12/11 12:23:13;;;;;;;;;;;19.20;38.90;;;;;;5069247;28;19921;-63
2022/12/11 12:25:40;;;;;;;;;;;19.20;38.90;;;;;;5069697;28;19974;-63
2022/12/11 12:28:13;;;;;;;;;;;19.20;38.90;;;;;;5062857;28;19943;-64
2022/12/11 12:30:44;;;;;;;;;;;19.20;38.90;;;;;;5051632;28;19921;-64
2022/12/11 12:33:14;;;;;;;;;;;19.20;38.90;;;;;;5091372;27;19920;-65
2022/12/11 12:35:42;;;;;;;;;;;19.20;38.90;;;;;;5069281;28;19920;-64
2022/12/11 12:38:11;;;;;;;;;;;19.20;38.90;;;;;;5078756;28;19925;-66
2022/12/11 12:40:40;;;;;;;;;;;19.20;38.90;;;;;;5063057;28;20032;-63
2022/12/11 12:43:11;;;;;;;;;;;19.30;39.00;;;;;;5068019;28;19933;-64
2022/12/11 12:45:42;;;;;;;;;;;19.30;39.00;;;;;;5071195;28;20366;-66
2022/12/11 12:48:09;;;;;;;;;;;19.30;39.00;;;;;;5068204;28;19928;-66
2022/12/11 12:50:37;;;;;;;;;;;19.30;39.00;;;;;;5095397;28;20389;-67
2022/12/11 12:53:04;;;;;;;;;;;19.30;39.60;;;;;;5067173;28;19921;-67
2022/12/11 12:55:31;;;;;;;;;;;19.30;39.00;;;;;;5060242;28;19925;-67
2022/12/11 12:57:59;;;;;;;;;;;19.30;39.00;;;;;;5074926;28;19927;-64
2022/12/11 13:00:29;;;;;;;;;;;19.30;39.00;;;;;;5097354;28;19920;-67
2022/12/11 13:02:57;;;;;;;;;;;19.30;39.00;;;;;;5063914;28;19925;-66
2022/12/11 13:05:25;;;;;;;;;;;19.30;38.90;;;;;;5065314;28;19924;-65
2022/12/11 13:07:52;;;;;;;;;;;19.30;39.00;;;;;;5070186;28;19921;-68
2022/12/11 13:10:23;;;;;;;;;;;19.30;39.00;;;;;;5060278;28;19929;-67
2022/12/11 13:12:50;;;;;;;;;;;19.30;39.00;;;;;;5070734;28;19982;-66
2022/12/11 13:15:33;;;;;;;;;;;19.30;39.00;;;;;;5070699;28;19928;-66
2022/12/11 13:18:01;;;;;;;;;;;19.30;39.00;;;;;;5068198;28;19977;-67
2022/12/11 13:20:28;;;;;;;;;;;19.30;39.00;;;;;;5065657;28;19921;-67
2022/12/11 13:22:56;;;;;;;;;;;19.30;39.00;;;;;;5065076;28;19954;-67
2022/12/11 13:25:24;;;;;;;;;;;19.30;39.00;;;;;;5065926;28;19928;-66
2022/12/11 13:27:51;;;;;;;;;;;19.20;38.90;;;;;;5063054;28;19920;-66
2022/12/11 13:30:25;;;;;;;;;;;19.20;38.90;;;;;;5071624;28;19921;-68
2022/12/11 13:33:04;;;;;;;;;;;19.20;38.90;;;;;;5074125;28;19921;-67
2022/12/11 13:35:31;;;;;;;;;;;19.20;38.90;;;;;;5068315;28;19920;-65
2022/12/11 13:38:00;;;;;;;;;;;19.20;38.90;;;;;;5070650;28;19954;-65
2022/12/11 13:40:28;;;;;;;;;;;19.20;39.00;;;;;;5066055;28;19920;-67
2022/12/11 13:43:04;;;;;;;;;;;19.20;38.90;;;;;;5069133;28;19925;-65
2022/12/11 13:45:44;;;;;;;;;;;19.20;38.90;;;;;;5065911;28;19925;-65
2022/12/11 13:48:15;;;;;;;;;;;19.20;38.90;;;;;;5067628;28;19942;-64
2022/12/11 13:50:42;;;;;;;;;;;19.20;38.90;;;;;;5068506;28;19921;-66
2022/12/11 13:53:14;;;;;;;;;;;19.20;38.90;;;;;;5066812;28;19932;-65
2022/12/11 13:55:41;;;;;;;;;;;19.20;39.00;;;;;;5064595;28;19931;-65
2022/12/11 13:58:15;;;;;;;;;;;19.20;39.00;;;;;;5064538;28;19932;-67
2022/12/11 14:00:50;;;;;;;;;;;19.20;39.00;;;;;;5068654;28;19924;-66
2022/12/11 14:03:18;;;;;;;;;;;19.20;39.00;;;;;;5064970;28;19924;-67
2022/12/11 14:05:45;;;;;;;;;;;19.20;39.00;;;;;;5057309;28;19951;-68
2022/12/11 14:08:12;;;;;;;;;;;19.20;39.00;;;;;;5059445;28;19937;-66
2022/12/11 14:10:39;;;;;;;;;;;19.20;39.00;;;;;;5051730;28;19931;-65
2022/12/11 14:13:06;;;;;;;;;;;19.20;38.80;;;;;;5095028;28;19925;-64
2022/12/11 14:15:33;;;;;;;;;;;19.10;36.10;;;;;;5068801;28;19924;-64
2022/12/11 14:18:00;;;;;;;;;;;19.10;36.20;;;;;;5071829;28;19924;-62
2022/12/11 14:20:28;;;;;;;;;;;19.10;36.30;;;;;;5071086;28;20061;-62
2022/12/11 14:23:06;;;;;;;;;;;19.10;36.20;;;;;;5059470;28;19924;-63
2022/12/11 14:25:33;;;;;;;;;;;19.10;36.10;;;;;;5059497;28;19928;-64
2022/12/11 14:28:00;;;;;;;;;;;19.00;35.70;;;;;;5069236;28;19921;-63
2022/12/11 14:30:27;;;;;;;;;;;19.00;35.40;;;;;;5051822;28;19920;-64